Enders, Pennsylvania
Current Conditions -  °F | °C
As of 12:58 AM on Saturday 25 Oct 2014 (Local Time) from KMUI Reporting Station
Clear Clear  
Wind Chill: 57°   Ceiling: Unl
Heat Index: 57°   Visibility: 10mi
Dew Point: 38°   Wind: 7mph
Humidity: 50%   Direction: 260°W
Pressure: 29.93"   Gusts: NA
Location:  40.4949°N, 76.8115°W
Report Text: KMUI 250458Z AUTO 26006KT 10SM CLR 14/04 A2993 RMK AO2 SLP137 T01370035 401980123 $
Loading
Personal Weather Stations






























Interactive Weather Map
Tropical Storm Tracking
New forecast layout! Learn more

10-Day Weather Forecast

Advertisements
Track Severe Weather on mobile